Nearby METAR Reports

 

KSJC - San Jose, California, USA
Distance from station: NE 9mi, 14km
Updated: Wed, 08-Feb-2023 8:53am PST
Mostly cloudy
Mostly cloudy
 Wind from calm
Wind: Calm
Temperature: 46°F , 8°C
Dew Point: 43°F , 6°C
Humidity: 87%
Barometer: 30.39 inHg , 1029.1 hPa
Clouds: Mostly cloudy
Visibility: 10 miles , 16 km
Cloud details: Few Clouds 1200 ft
Mostly cloudy 10000 ft
Mostly cloudy 16000 ft
2023/02/08 16:53 KSJC 081653Z 00000KT 10SM FEW012 BKN100 BKN160 08/06 A3039 RMK AO2 SLP289 T00830061
KNUQ - Moffett Nas/Mtn, California, USA
Distance from station: N 9mi, 14km
Updated: Wed, 08-Feb-2023 9:15am PST
Clear
Clear
 Wind from calm
Wind: Calm
Temperature: 48°F , 9°C
Dew Point: 45°F , 7°C
Humidity: 87%
Barometer: 30.40 inHg , 1029.5 hPa
Clouds: Clear
Visibility: 10 miles , 16 km
2023/02/08 17:15 KNUQ 081715Z AUTO 00000KT 10SM CLR 09/07 A3040 RMK AO2
KPAO - Palo Alto, California, USA
Distance from station: NNW 14mi, 23km
Updated: Wed, 08-Feb-2023 8:47am PST
Partly cloudy
Partly cloudy
 Wind from calm
Wind: Calm
Temperature: 46°F , 8°C
Dew Point: 43°F , 6°C
Humidity: 87%
Barometer: 30.39 inHg , 1029.1 hPa
Clouds: Partly cloudy
Visibility: 10 miles , 16 km
Cloud details: Partly cloudy 20000 ft
2023/02/08 16:47 KPAO 081647Z 00000KT 10SM SCT200 08/06 A3039
 
KRHV - San Jose/Reid, California, USA
Distance from station: ENE 12mi, 19km
Updated: Wed, 08-Feb-2023 8:47am PST
Partly cloudy
Partly cloudy
 Wind from calm
Wind: Calm
Temperature: 46°F , 8°C
Dew Point: 39°F , 4°C
Humidity: 76%
Barometer: 30.39 inHg , 1029.1 hPa
Clouds: Partly cloudy
Visibility: 10 miles , 16 km
Cloud details: Partly cloudy 12000 ft
2023/02/08 16:47 KRHV 081647Z 00000KT 10SM SCT120 08/04 A3039
KOAK - Oakland, California, USA
Distance from station: NNW 31mi, 50km
Updated: Wed, 08-Feb-2023 8:53am PST
Partly cloudy
Partly cloudy
 Wind from calm
Wind: Calm
Temperature: 48°F , 9°C
Dew Point: 45°F , 7°C
Humidity: 87%
Barometer: 30.40 inHg , 1029.5 hPa
Clouds: Partly cloudy
Visibility: 10 miles , 16 km
Cloud details: Partly cloudy 25000 ft
2023/02/08 16:53 KOAK 081653Z 00000KT 10SM SCT250 09/07 A3040 RMK AO2 SLP293 T00940067
KSQL - San Carlos Airpo, California, USA
Distance from station: NW 21mi, 34km
Updated: Wed, 08-Feb-2023 8:47am PST
Few Clouds
Few Clouds
 Wind from calm
Wind: Calm
Temperature: 48°F , 9°C
Dew Point: 46°F , 8°C
Humidity: 94%
Barometer: 30.40 inHg , 1029.5 hPa
Clouds: Few Clouds
Visibility: 10 miles , 16 km
Cloud details: Few Clouds 18000 ft
2023/02/08 16:47 KSQL 081647Z 00000KT 10SM FEW180 09/08 A3040
 
KSFO - San Francisco, California, USA
Distance from station: NW 30mi, 49km
Updated: Wed, 08-Feb-2023 8:56am PST
Few Clouds
Few Clouds
 Wind from calm
Wind: Calm
Temperature: 50°F , 10°C
Dew Point: 46°F , 8°C
Humidity: 88%
Barometer: 30.39 inHg , 1029.1 hPa
Clouds: Few Clouds
Visibility: 10 miles , 16 km
Cloud details: Few Clouds 18000 ft
2023/02/08 16:56 KSFO 081656Z 00000KT 10SM FEW180 10/08 A3039 RMK AO2 SLP292 T01000083
KE16 - San Martin, California, USA
Distance from station: ESE 27mi, 43km
Updated: Wed, 08-Feb-2023 9:15am PST
Clear
Clear
 Wind from calm
Wind: Calm
Temperature: 46°F , 8°C
Dew Point: 41°F , 5°C
Humidity: 82%
Barometer: 30.41 inHg , 1029.8 hPa
Clouds: Clear
Visibility: 10 miles , 16 km
2023/02/08 17:15 KE16 081715Z AUTO 00000KT 10SM CLR 08/05 A3041 RMK AO2
KWVI - Watsonville, California, USA
Distance from station: SSE 27mi, 44km
Updated: Wed, 08-Feb-2023 8:53am PST
Clear
Clear
 Wind from calm
Wind: Calm
Temperature: 46°F , 8°C
Dew Point: 41°F , 5°C
Humidity: 82%
Barometer: 30.38 inHg , 1028.8 hPa
Clouds: Clear
Visibility: 10 miles , 16 km
2023/02/08 16:53 KWVI 081653Z AUTO 00000KT 10SM CLR 08/05 A3038 RMK AO2 SLP287 T00830050
 
KHAF - Half Moon Bay, California, USA
Distance from station: WNW 31mi, 50km
Updated: Wed, 08-Feb-2023 9:15am PST
Haze, Few clouds
Haze, Few clouds
 Wind from NW
Wind: NW 6 mph , 9 km/h
Temperature: 54°F , 12°C
Dew Point: 45°F , 7°C
Humidity: 72%
Barometer: 30.37 inHg , 1028.4 hPa
Summary: Haze
Clouds: Few Clouds
Visibility: 3 miles , 5 km
Cloud details: Few Clouds 300 ft
2023/02/08 17:15 KHAF 081715Z AUTO 32005KT 3SM HZ FEW003 12/07 A3037 RMK AO2
KHWD - Hayward, California, USA
Distance from station: N 28mi, 44km
Updated: Wed, 08-Feb-2023 8:54am PST
Clear
Clear
 Wind from E
Wind: E 3 mph , 6 km/h
Temperature: 48°F , 9°C
Dew Point: 43°F , 6°C
Humidity: 82%
Barometer: 30.39 inHg , 1029.1 hPa
Clouds: Clear
Visibility: 10 miles , 16 km
2023/02/08 16:54 KHWD 081654Z 10003KT 10SM CLR 09/06 A3039 RMK AO2 SLP300 T00940061
KLVK - Livermore, California, USA
Distance from station: NNE 31mi, 51km
Updated: Wed, 08-Feb-2023 8:53am PST
Clear
Clear
 Wind from calm
Wind: Calm
Temperature: 43°F , 6°C
Dew Point: 39°F , 4°C
Humidity: 87%
Barometer: 30.39 inHg , 1029.1 hPa
Clouds: Clear
Visibility: 10 miles , 16 km
2023/02/08 16:53 KLVK 081653Z 00000KT 10SM CLR 06/04 A3039 RMK AO2 SLP290 T00610039